createdAt,value
2022-07-26T00:02:13.141Z,93238.44
2022-07-26T00:07:19.146Z,93230.23
2022-07-26T00:12:30.654Z,93238.56
2022-07-26T00:17:37.548Z,93245.18
2022-07-26T00:22:47.987Z,93263.23
2022-07-26T00:27:59.812Z,93283.17
2022-07-26T00:33:09.870Z,93264.92
2022-07-26T00:38:18.934Z,93237.66
2022-07-26T00:43:27.478Z,93246.72
2022-07-26T00:48:42.445Z,93228.38
2022-07-26T00:53:51.659Z,93200.91
2022-07-26T00:59:00.856Z,93161.81
2022-07-26T01:04:10.691Z,93136.52
2022-07-26T01:09:22.222Z,93125.29
2022-07-26T01:14:31.517Z,93126.23
2022-07-26T01:19:42.107Z,93140.91
2022-07-26T01:24:49.283Z,93127.97
2022-07-26T01:29:56.558Z,93122.46
2022-07-26T01:35:06.600Z,93123.58
2022-07-26T01:40:16.634Z,93122.47
2022-07-26T01:45:23.527Z,93120.38
2022-07-26T01:50:31.878Z,93101.84
2022-07-26T01:55:39.683Z,93098.41
2022-07-26T02:00:50.851Z,93110.69
2022-07-26T02:05:58.885Z,93109.84
2022-07-26T02:11:08.614Z,93105.97
2022-07-26T02:16:17.967Z,93109.79
2022-07-26T02:21:24.998Z,93112.14
2022-07-26T02:26:31.927Z,93121.06
2022-07-26T02:31:38.883Z,93116.94
2022-07-26T02:36:48.057Z,93124.89
2022-07-26T02:42:02.628Z,93121.22
2022-07-26T02:47:09.768Z,93124.27
2022-07-26T02:52:19.788Z,93129.21
2022-07-26T02:57:26.758Z,93141.94
2022-07-26T03:02:37.303Z,93135.20
2022-07-26T03:07:45.609Z,93136.25
2022-07-26T03:12:52.460Z,93129.38
2022-07-26T03:17:59.942Z,93120.28
2022-07-26T03:23:10.955Z,93128.45
2022-07-26T03:28:19.793Z,93140.36
2022-07-26T03:33:26.778Z,93133.89
2022-07-26T03:38:39.017Z,93150.15
2022-07-26T03:43:45.867Z,93151.63
2022-07-26T03:48:55.369Z,93145.45
2022-07-26T03:54:03.287Z,93139.28
2022-07-26T03:59:13.065Z,93147.28
2022-07-26T04:04:21.064Z,93145.62
2022-07-26T04:09:29.974Z,93150.10
2022-07-26T04:14:36.729Z,93161.92
2022-07-26T04:19:45.658Z,93171.96
2022-07-26T04:24:55.598Z,93168.41
2022-07-26T04:30:03.459Z,93171.31
2022-07-26T04:35:12.540Z,93188.45
2022-07-26T04:40:23.748Z,93203.47
2022-07-26T04:45:32.899Z,93200.61
2022-07-26T04:50:47.207Z,93194.30
2022-07-26T04:55:54.108Z,93216.23
2022-07-26T05:01:10.001Z,93225.41
2022-07-26T05:06:14.131Z,93236.06
2022-07-26T05:11:27.699Z,93258.74
2022-07-26T05:16:38.420Z,93264.27
2022-07-26T05:21:46.559Z,93269.48
2022-07-26T05:26:58.325Z,93267.48
2022-07-26T05:32:06.033Z,93277.97
2022-07-26T05:37:17.647Z,93281.89
2022-07-26T05:42:26.145Z,93270.06
2022-07-26T05:47:36.458Z,93288.16
2022-07-26T05:52:43.690Z,93266.14
2022-07-26T05:57:54.709Z,93265.75
2022-07-26T06:03:07.438Z,93275.03
2022-07-26T06:08:14.267Z,93273.34
2022-07-26T06:13:25.826Z,93274.53
2022-07-26T06:18:36.580Z,93278.36
2022-07-26T06:23:45.869Z,93280.96
2022-07-26T06:28:57.598Z,93283.23
2022-07-26T06:34:05.096Z,93285.91
2022-07-26T06:39:16.058Z,93282.32
2022-07-26T06:44:24.238Z,93281.67
2022-07-26T06:49:34.929Z,93278.05
2022-07-26T06:54:46.797Z,93283.12
2022-07-26T06:59:54.958Z,93283.91
2022-07-26T07:05:03.509Z,93280.68
2022-07-26T07:10:13.007Z,93279.59
2022-07-26T07:15:27.550Z,93281.67
2022-07-26T07:20:39.747Z,93283.38
2022-07-26T07:25:52.058Z,93287.61
2022-07-26T07:30:59.318Z,93290.70
2022-07-26T07:36:12.559Z,93291.34
2022-07-26T07:41:23.918Z,93293.69
2022-07-26T07:46:33.561Z,93297.66
2022-07-26T07:51:46.029Z,93311.92
2022-07-26T07:56:59.551Z,93324.13
2022-07-26T08:02:13.140Z,93342.25
2022-07-26T08:07:23.955Z,93353.78
2022-07-26T08:12:32.809Z,93355.12
2022-07-26T08:17:44.777Z,93347.90
2022-07-26T08:23:00.067Z,93342.73
2022-07-26T08:28:15.506Z,93349.30
2022-07-26T08:33:19.497Z,93356.59
2022-07-26T08:38:28.297Z,93358.02
2022-07-26T08:43:46.694Z,93361.89
2022-07-26T08:48:56.258Z,93370.18
2022-07-26T08:54:08.387Z,93370.97
2022-07-26T08:59:26.538Z,93377.92
2022-07-26T09:04:44.763Z,93386.55
2022-07-26T09:10:02.375Z,93396.16
2022-07-26T09:15:23.267Z,93395.96
2022-07-26T09:20:39.481Z,93396.88
2022-07-26T09:25:50.020Z,93400.06
2022-07-26T09:31:04.088Z,93403.05
2022-07-26T09:36:13.238Z,93405.05
2022-07-26T09:41:38.557Z,93416.83
2022-07-26T09:46:59.122Z,93421.46
2022-07-26T09:52:11.930Z,93413.61
2022-07-26T09:57:22.896Z,93436.94
2022-07-26T10:02:31.049Z,93434.09
2022-07-26T10:07:40.652Z,93442.10
2022-07-26T10:12:47.929Z,93443.64
2022-07-26T10:17:57.848Z,93444.58
2022-07-26T10:23:07.147Z,93440.50
2022-07-26T10:28:29.508Z,93446.61
2022-07-26T10:33:43.497Z,93448.16
2022-07-26T10:39:10.946Z,93438.59
2022-07-26T10:44:19.716Z,93434.42
2022-07-26T10:49:42.545Z,93431.89
2022-07-26T10:55:07.569Z,93433.04
2022-07-26T11:00:30.028Z,93426.44
2022-07-26T11:05:37.630Z,93428.56
2022-07-26T11:10:49.770Z,93427.88
2022-07-26T11:16:06.802Z,93424.87
2022-07-26T11:21:24.556Z,93432.74
2022-07-26T11:26:37.927Z,93415.25
2022-07-26T11:31:59.984Z,93425.17
2022-07-26T11:37:04.926Z,93419.77
2022-07-26T11:42:21.377Z,93426.63
2022-07-26T11:47:28.637Z,93423.44
2022-07-26T11:52:35.648Z,93422.52
2022-07-26T11:57:43.597Z,93414.91
2022-07-26T12:02:55.978Z,93410.44
2022-07-26T12:08:07.977Z,93409.85
2022-07-26T12:13:19.427Z,93411.25
2022-07-26T12:18:35.205Z,93406.19
2022-07-26T12:23:53.656Z,93398.32
2022-07-26T12:29:21.981Z,93383.72
2022-07-26T12:34:30.778Z,93387.27
2022-07-26T12:39:38.435Z,93392.87
2022-07-26T12:44:54.368Z,93383.45
2022-07-26T12:50:03.620Z,93384.38
2022-07-26T12:55:19.096Z,93377.03
2022-07-26T13:00:27.174Z,93378.20
2022-07-26T13:05:40.626Z,93375.25
2022-07-26T13:10:47.558Z,93374.09
2022-07-26T13:15:58.764Z,93356.28
2022-07-26T13:21:11.134Z,93355.74
2022-07-26T13:26:21.018Z,93351.19
2022-07-26T13:31:32.042Z,93352.33
2022-07-26T13:36:43.127Z,93351.91
2022-07-26T13:41:54.892Z,93353.11
2022-07-26T13:47:03.917Z,93361.75
2022-07-26T13:52:18.567Z,93357.30
2022-07-26T13:57:47.247Z,93362.73
2022-07-26T14:02:38.059Z,93366.38
2022-07-26T14:07:46.477Z,93365.13
2022-07-26T14:12:58.268Z,93362.09
2022-07-26T14:18:06.416Z,93372.88
2022-07-26T14:23:15.047Z,93366.92
2022-07-26T14:28:23.794Z,93373.02
2022-07-26T14:33:37.340Z,93371.30
2022-07-26T14:38:53.337Z,93373.03
2022-07-26T14:44:04.079Z,93365.44
2022-07-26T14:49:17.353Z,93365.77
2022-07-26T14:54:27.450Z,93357.09
2022-07-26T14:59:39.709Z,93356.95
2022-07-26T15:04:49.480Z,93357.53
2022-07-26T15:10:01.139Z,93355.55
2022-07-26T15:15:17.053Z,93355.44
2022-07-26T15:20:30.248Z,93332.44
2022-07-26T15:25:41.758Z,93344.43
2022-07-26T15:30:54.669Z,93354.52
2022-07-26T15:36:05.847Z,93355.66
2022-07-26T15:41:19.257Z,93357.95
2022-07-26T15:46:27.709Z,93362.02
2022-07-26T15:51:37.235Z,93368.40
2022-07-26T15:56:48.917Z,93371.41
2022-07-26T16:01:56.085Z,93377.85
2022-07-26T16:07:04.398Z,93376.75
2022-07-26T16:12:13.860Z,93380.00
2022-07-26T16:17:24.004Z,93380.30
2022-07-26T16:22:33.149Z,93387.41
2022-07-26T16:27:43.338Z,93385.59
2022-07-26T16:32:54.857Z,93390.11
2022-07-26T16:38:03.261Z,93395.47
2022-07-26T16:43:12.003Z,93391.69
2022-07-26T16:48:18.698Z,93396.39
2022-07-26T16:53:28.616Z,93393.27
2022-07-26T16:58:37.096Z,93402.42
2022-07-26T17:03:46.434Z,93397.33
2022-07-26T17:08:53.467Z,93393.09
2022-07-26T17:14:03.307Z,93406.53
2022-07-26T17:19:14.060Z,93409.06
2022-07-26T17:24:21.778Z,93422.84
2022-07-26T17:29:30.558Z,93429.95
2022-07-26T17:34:40.265Z,93423.55
2022-07-26T17:39:51.704Z,93429.02
2022-07-26T17:44:57.511Z,93424.86
2022-07-26T17:55:20.185Z,93404.78
2022-07-26T18:00:29.764Z,93404.92
2022-07-26T18:05:41.343Z,93421.23
2022-07-26T18:10:51.187Z,93432.67
2022-07-26T18:16:05.502Z,93443.30
2022-07-26T18:21:14.581Z,93451.42
2022-07-26T18:26:20.468Z,93452.77
2022-07-26T18:31:31.843Z,93453.33
2022-07-26T18:36:42.913Z,93453.40
2022-07-26T18:41:51.198Z,93453.64
2022-07-26T18:46:59.127Z,93455.41
2022-07-26T18:52:08.824Z,93463.90
2022-07-26T18:57:19.125Z,93468.93
2022-07-26T19:02:27.729Z,93467.04
2022-07-26T19:07:39.614Z,93470.46
2022-07-26T19:12:50.389Z,93476.32
2022-07-26T19:17:59.058Z,93492.69
2022-07-26T19:23:10.444Z,93496.41
2022-07-26T19:28:19.818Z,93493.73
2022-07-26T19:33:29.969Z,93496.62
2022-07-26T19:38:41.187Z,93497.34
2022-07-26T19:43:57.056Z,93514.58
2022-07-26T19:49:05.386Z,93523.36
2022-07-26T19:54:18.887Z,93529.45
2022-07-26T19:59:26.416Z,93527.99
2022-07-26T20:04:33.348Z,93524.19
2022-07-26T20:09:42.527Z,93524.75
2022-07-26T20:14:50.758Z,93531.70
2022-07-26T20:20:00.049Z,93537.09
2022-07-26T20:25:08.958Z,93546.64
2022-07-26T20:30:22.162Z,93547.63
2022-07-26T20:35:30.407Z,93534.21
2022-07-26T20:40:39.572Z,93526.11
2022-07-26T20:45:47.434Z,93533.09
2022-07-26T20:50:56.192Z,93546.45
2022-07-26T20:56:03.389Z,93547.74
2022-07-26T21:01:10.447Z,93556.95
2022-07-26T21:06:17.459Z,93562.82
2022-07-26T21:11:24.558Z,93558.59
2022-07-26T21:16:31.745Z,93562.91
2022-07-26T21:21:39.599Z,93561.00
2022-07-26T21:26:46.529Z,93553.77
2022-07-26T21:31:53.609Z,93554.78
2022-07-26T21:37:00.607Z,93557.47
2022-07-26T21:42:07.888Z,93554.75
2022-07-26T21:47:15.158Z,93551.72
2022-07-26T21:52:22.358Z,93560.22
2022-07-26T21:57:29.450Z,93552.87
2022-07-26T22:02:36.516Z,93549.22
2022-07-26T22:07:43.477Z,93551.64
2022-07-26T22:12:50.488Z,93548.66
2022-07-26T22:17:59.415Z,93554.20
2022-07-26T22:23:10.916Z,93553.65
2022-07-26T22:28:18.765Z,93561.45
2022-07-26T22:33:27.209Z,93554.61
2022-07-26T22:38:34.078Z,93562.97
2022-07-26T22:43:42.137Z,93561.75
2022-07-26T22:48:49.217Z,93555.50
2022-07-26T22:53:56.271Z,93556.70
2022-07-26T22:59:03.318Z,93552.37
2022-07-26T23:04:11.169Z,93542.47
2022-07-26T23:09:18.250Z,93550.99
2022-07-26T23:14:25.298Z,93541.22
2022-07-26T23:19:32.528Z,93544.70
2022-07-26T23:24:39.618Z,93538.33
2022-07-26T23:29:50.249Z,93536.53
2022-07-26T23:34:57.368Z,93540.70
2022-07-26T23:40:04.812Z,93536.59
2022-07-26T23:45:13.767Z,93544.47
2022-07-26T23:50:20.888Z,93547.34
2022-07-26T23:55:29.229Z,93543.80
